createdAt,value
2022-11-15T00:00:57.256Z,10.36
2022-11-15T00:03:26.377Z,10.38
2022-11-15T00:05:53.521Z,10.33
2022-11-15T00:08:20.606Z,10.18
2022-11-15T00:11:01.023Z,10.16
2022-11-15T00:13:29.069Z,10.09
2022-11-15T00:16:01.936Z,10.11
2022-11-15T00:18:29.924Z,10.14
2022-11-15T00:20:57.115Z,10.20
2022-11-15T00:23:23.797Z,10.18
2022-11-15T00:25:57.767Z,10.19
2022-11-15T00:28:25.036Z,10.15
2022-11-15T00:30:51.871Z,10.08
2022-11-15T00:33:19.193Z,10.12
2022-11-15T00:35:45.858Z,10.15
2022-11-15T00:38:12.449Z,10.18
2022-11-15T00:40:39.067Z,10.22
2022-11-15T00:43:05.523Z,10.24
2022-11-15T00:45:32.139Z,10.31
2022-11-15T00:47:58.721Z,10.36
2022-11-15T00:50:25.414Z,10.32
2022-11-15T00:52:51.982Z,10.32
2022-11-15T00:55:20.159Z,10.35
2022-11-15T00:57:48.060Z,10.33
2022-11-15T01:00:14.915Z,10.35
2022-11-15T01:02:41.685Z,10.28
2022-11-15T01:05:08.867Z,10.33
2022-11-15T01:07:35.639Z,10.28
2022-11-15T01:10:02.333Z,10.35
2022-11-15T01:12:29.079Z,10.17
2022-11-15T01:14:55.771Z,10.12
2022-11-15T01:17:22.570Z,10.11
2022-11-15T01:19:49.152Z,10.03
2022-11-15T01:22:15.870Z,10.19
2022-11-15T01:24:42.788Z,10.24
2022-11-15T01:27:09.805Z,10.32
2022-11-15T01:29:36.455Z,10.43
2022-11-15T01:32:03.408Z,10.51
2022-11-15T01:34:29.898Z,10.50
2022-11-15T01:36:56.604Z,10.44
2022-11-15T01:39:23.252Z,10.44
2022-11-15T01:41:49.937Z,10.55
2022-11-15T01:44:34.727Z,10.42
2022-11-15T01:47:04.232Z,10.52
2022-11-15T01:49:34.972Z,10.41
2022-11-15T01:52:05.031Z,10.61
2022-11-15T01:54:32.228Z,10.47
2022-11-15T01:57:11.167Z,10.50
2022-11-15T01:59:41.662Z,10.38
2022-11-15T02:02:08.698Z,10.51
2022-11-15T02:04:40.690Z,10.58
2022-11-15T02:07:10.984Z,10.48
2022-11-15T02:09:38.734Z,10.48
2022-11-15T02:12:07.459Z,10.48
2022-11-15T02:14:34.940Z,10.51
2022-11-15T02:17:19.848Z,10.50
2022-11-15T02:20:04.661Z,10.57
2022-11-15T02:22:44.519Z,10.58
2022-11-15T02:25:16.771Z,10.59
2022-11-15T02:28:00.758Z,10.53
2022-11-15T02:30:39.137Z,10.55
2022-11-15T02:33:18.009Z,10.41
2022-11-15T02:35:59.647Z,10.44
2022-11-15T02:38:31.634Z,10.44
2022-11-15T02:41:00.990Z,10.35
2022-11-15T02:43:59.804Z,10.36
2022-11-15T02:47:03.726Z,10.33
2022-11-15T02:49:33.580Z,10.26
2022-11-15T02:52:00.160Z,10.29
2022-11-15T02:54:30.960Z,10.24
2022-11-15T02:57:07.062Z,10.21
2022-11-15T02:59:54.304Z,10.15
2022-11-15T03:03:06.891Z,10.08
2022-11-15T03:05:42.216Z,10.06
2022-11-15T03:08:11.472Z,10.05
2022-11-15T03:10:52.580Z,10.07
2022-11-15T03:13:27.555Z,10.05
2022-11-15T03:16:04.587Z,10.09
2022-11-15T03:18:34.954Z,10.08
2022-11-15T03:21:06.505Z,10.06
2022-11-15T03:23:34.613Z,10.00
2022-11-15T03:26:04.497Z,9.91
2022-11-15T03:28:39.644Z,9.95
2022-11-15T03:31:27.131Z,9.89
2022-11-15T03:33:56.792Z,9.94
2022-11-15T03:36:26.105Z,9.94
2022-11-15T03:38:58.313Z,9.97
2022-11-15T03:41:34.258Z,10.00
2022-11-15T03:44:32.953Z,10.09
2022-11-15T03:47:09.892Z,10.10
2022-11-15T03:49:39.778Z,10.15
2022-11-15T03:52:07.248Z,10.06
2022-11-15T03:54:33.858Z,9.99
2022-11-15T03:57:00.533Z,9.94
2022-11-15T03:59:27.222Z,9.90
2022-11-15T04:01:53.973Z,9.72
2022-11-15T04:04:20.665Z,9.65
2022-11-15T04:06:47.396Z,9.49
2022-11-15T04:09:14.084Z,9.49
2022-11-15T04:11:40.643Z,9.33
2022-11-15T04:14:07.355Z,9.44
2022-11-15T04:16:33.946Z,9.51
2022-11-15T04:19:19.135Z,9.57
2022-11-15T04:22:04.262Z,9.44
2022-11-15T04:24:30.920Z,9.57
2022-11-15T04:26:57.527Z,9.51
2022-11-15T04:29:36.433Z,9.45
2022-11-15T04:32:07.909Z,9.56
2022-11-15T04:34:34.453Z,9.67
2022-11-15T04:37:13.173Z,9.66
2022-11-15T04:39:44.399Z,9.68
2022-11-15T04:42:11.905Z,9.75
2022-11-15T04:44:38.500Z,9.79
2022-11-15T04:47:05.647Z,9.87
2022-11-15T04:49:32.423Z,9.87
2022-11-15T04:51:59.151Z,9.86
2022-11-15T04:54:25.837Z,9.90
2022-11-15T04:56:52.496Z,9.87
2022-11-15T04:59:19.069Z,9.82
2022-11-15T05:01:45.653Z,9.69
2022-11-15T05:04:21.899Z,9.68
2022-11-15T05:06:50.110Z,9.62
2022-11-15T05:09:18.295Z,9.54
2022-11-15T05:11:45.237Z,9.51
2022-11-15T05:14:12.064Z,9.63
2022-11-15T05:16:38.861Z,9.59
2022-11-15T05:19:05.950Z,9.49
2022-11-15T05:21:33.334Z,9.64
2022-11-15T05:24:00.039Z,9.74
2022-11-15T05:26:27.234Z,9.81
2022-11-15T05:28:56.217Z,9.83
2022-11-15T05:31:23.334Z,9.82
2022-11-15T05:33:51.839Z,9.90
2022-11-15T05:36:42.011Z,9.88
2022-11-15T05:39:10.219Z,9.79
2022-11-15T05:41:40.356Z,9.84
2022-11-15T05:44:10.525Z,9.82
2022-11-15T05:46:40.970Z,9.88
2022-11-15T05:49:11.591Z,9.87
2022-11-15T05:51:38.522Z,9.84
2022-11-15T05:54:05.303Z,9.74
2022-11-15T05:56:32.257Z,9.78
2022-11-15T05:59:00.177Z,9.87
2022-11-15T06:01:27.902Z,9.73
2022-11-15T06:03:54.836Z,9.71
2022-11-15T06:06:21.621Z,9.60
2022-11-15T06:08:48.998Z,9.46
2022-11-15T06:11:15.632Z,9.48
2022-11-15T06:13:42.268Z,9.46
2022-11-15T06:16:08.946Z,9.32
2022-11-15T06:18:36.506Z,9.24
2022-11-15T06:21:03.349Z,9.10
2022-11-15T06:23:33.594Z,8.85
2022-11-15T06:26:00.767Z,8.72
2022-11-15T06:28:31.121Z,8.54
2022-11-15T06:31:03.017Z,8.58
2022-11-15T06:33:30.000Z,8.74
2022-11-15T06:35:57.030Z,8.84
2022-11-15T06:38:23.717Z,8.74
2022-11-15T06:40:50.296Z,8.72
2022-11-15T06:43:17.166Z,8.76
2022-11-15T06:45:43.845Z,8.67
2022-11-15T06:48:10.488Z,8.67
2022-11-15T06:50:37.063Z,8.63
2022-11-15T06:53:06.794Z,8.59
2022-11-15T06:55:33.284Z,8.55
2022-11-15T06:57:59.767Z,8.53
2022-11-15T07:00:26.451Z,8.45
2022-11-15T07:02:53.152Z,8.51
2022-11-15T07:05:19.996Z,8.59
2022-11-15T07:07:53.479Z,8.70
2022-11-15T07:10:20.237Z,8.60
2022-11-15T07:12:50.170Z,8.42
2022-11-15T07:15:21.133Z,8.52
2022-11-15T07:17:47.796Z,8.39
2022-11-15T07:20:15.564Z,8.46
2022-11-15T07:22:42.591Z,8.45
2022-11-15T07:25:10.503Z,8.51
2022-11-15T07:27:37.125Z,8.45
2022-11-15T07:30:04.514Z,8.54
2022-11-15T07:32:31.186Z,8.61
2022-11-15T07:34:57.878Z,8.70
2022-11-15T07:37:24.543Z,8.74
2022-11-15T07:39:51.109Z,8.69
2022-11-15T07:42:36.414Z,8.75
2022-11-15T07:45:03.254Z,8.78
2022-11-15T07:47:30.314Z,8.81
2022-11-15T07:49:56.921Z,8.74
2022-11-15T07:52:23.795Z,8.88
2022-11-15T07:54:50.462Z,9.10
2022-11-15T07:57:17.210Z,9.31
2022-11-15T07:59:43.890Z,9.37
2022-11-15T08:02:10.990Z,9.44
2022-11-15T08:04:37.738Z,9.70
2022-11-15T08:07:04.389Z,9.96
2022-11-15T08:09:30.981Z,10.30
2022-11-15T08:11:57.645Z,10.51
2022-11-15T08:14:24.398Z,10.70
2022-11-15T08:16:51.037Z,10.88
2022-11-15T08:19:17.704Z,11.10
2022-11-15T08:21:44.409Z,11.18
2022-11-15T08:24:12.126Z,11.33
2022-11-15T08:26:39.122Z,11.34
2022-11-15T08:29:05.828Z,11.46
2022-11-15T08:31:32.487Z,11.46
2022-11-15T08:33:59.232Z,11.67
2022-11-15T08:36:25.921Z,11.80
2022-11-15T08:38:52.499Z,11.88
2022-11-15T08:41:34.421Z,12.02
2022-11-15T08:44:01.041Z,12.16
2022-11-15T08:46:27.692Z,12.16
2022-11-15T08:48:54.381Z,12.24
2022-11-15T08:51:21.196Z,12.44
2022-11-15T08:53:48.045Z,12.62
2022-11-15T08:56:16.244Z,12.88
2022-11-15T08:58:43.798Z,13.12
2022-11-15T09:01:21.616Z,13.36
2022-11-15T09:03:48.504Z,13.56
2022-11-15T09:06:15.941Z,13.59
2022-11-15T09:08:49.809Z,13.78
2022-11-15T09:11:19.012Z,13.77
2022-11-15T09:13:45.612Z,13.89
2022-11-15T09:16:13.671Z,13.89
2022-11-15T09:18:40.403Z,13.95
2022-11-15T09:21:07.166Z,14.06
2022-11-15T09:23:34.056Z,14.17
2022-11-15T09:26:02.411Z,14.12
2022-11-15T09:28:30.282Z,14.14
2022-11-15T09:31:01.878Z,14.11
2022-11-15T09:33:29.511Z,14.06
2022-11-15T09:36:18.569Z,13.91
2022-11-15T09:38:46.166Z,13.98
2022-11-15T09:41:12.733Z,13.91
2022-11-15T09:44:03.521Z,13.79
2022-11-15T09:46:38.901Z,13.72
2022-11-15T09:49:05.869Z,13.62
2022-11-15T09:51:48.955Z,13.62
2022-11-15T09:57:20.061Z,13.59
2022-11-15T10:00:04.218Z,13.57
2022-11-15T10:03:10.269Z,13.67
2022-11-15T10:05:41.547Z,13.72
2022-11-15T10:08:30.461Z,13.89
2022-11-15T10:11:35.526Z,14.01
2022-11-15T10:13:53.694Z,14.07
2022-11-15T10:16:26.413Z,14.37
2022-11-15T10:19:08.039Z,14.66
2022-11-15T10:21:59.434Z,14.94
2022-11-15T10:24:29.423Z,15.07
2022-11-15T10:26:57.143Z,15.21
2022-11-15T10:29:27.075Z,15.45
2022-11-15T10:31:54.441Z,15.61
2022-11-15T10:34:24.122Z,15.72
2022-11-15T10:37:03.131Z,15.80
2022-11-15T10:39:30.264Z,15.82
2022-11-15T10:41:56.978Z,15.95
2022-11-15T10:44:29.949Z,15.93
2022-11-15T10:46:56.450Z,15.85
2022-11-15T10:49:31.337Z,15.87
2022-11-15T10:52:13.244Z,15.88
2022-11-15T10:54:50.836Z,15.74
2022-11-15T10:57:25.296Z,15.67
2022-11-15T11:00:21.372Z,15.66
2022-11-15T11:02:56.738Z,15.81
2022-11-15T11:05:42.585Z,15.72
2022-11-15T11:08:12.340Z,15.74
2022-11-15T11:11:00.068Z,15.93
2022-11-15T11:13:45.833Z,15.79
2022-11-15T11:16:15.166Z,15.82
2022-11-15T11:19:02.197Z,15.92
2022-11-15T11:21:46.935Z,15.95
2022-11-15T11:24:26.474Z,15.93
2022-11-15T11:26:57.149Z,16.11
2022-11-15T11:29:50.362Z,16.11
2022-11-15T11:32:51.273Z,16.09
2022-11-15T11:35:23.600Z,16.06
2022-11-15T11:38:10.985Z,16.15
2022-11-15T11:41:02.541Z,16.32
2022-11-15T11:43:38.877Z,16.40
2022-11-15T11:46:26.110Z,16.57
2022-11-15T11:49:00.102Z,16.43
2022-11-15T11:51:40.550Z,16.42
2022-11-15T11:54:15.395Z,16.37
2022-11-15T11:56:45.546Z,16.43
2022-11-15T11:59:49.338Z,16.49
2022-11-15T12:02:43.224Z,16.52
2022-11-15T12:05:30.154Z,16.62
2022-11-15T12:08:05.674Z,16.49
2022-11-15T12:10:35.664Z,16.76
2022-11-15T12:13:08.985Z,16.79
2022-11-15T12:15:46.717Z,16.56
2022-11-15T12:18:16.274Z,16.39
2022-11-15T12:20:53.901Z,16.43
2022-11-15T12:23:51.750Z,16.41
2022-11-15T12:26:23.521Z,16.41
2022-11-15T12:29:07.625Z,16.44
2022-11-15T12:31:35.219Z,16.57
2022-11-15T12:34:46.202Z,16.53
2022-11-15T12:37:38.801Z,16.53
2022-11-15T12:40:24.738Z,16.69
2022-11-15T12:43:27.010Z,16.58
2022-11-15T12:45:53.753Z,16.66
2022-11-15T12:48:20.523Z,16.60
2022-11-15T12:50:56.368Z,16.62
2022-11-15T12:53:25.883Z,16.72
2022-11-15T12:56:04.900Z,16.84
2022-11-15T12:58:56.181Z,16.98
2022-11-15T13:01:32.214Z,16.95
2022-11-15T13:04:20.816Z,16.83
2022-11-15T13:06:51.734Z,16.70
2022-11-15T13:09:33.720Z,16.45
2022-11-15T13:12:05.081Z,16.35
2022-11-15T13:14:40.959Z,16.31
2022-11-15T13:17:22.724Z,16.39
2022-11-15T13:20:02.302Z,16.43
2022-11-15T13:22:51.936Z,16.40
2022-11-15T13:25:39.689Z,16.41
2022-11-15T13:28:15.425Z,16.43
2022-11-15T13:30:48.029Z,16.29
2022-11-15T13:33:39.465Z,16.27
2022-11-15T13:36:14.591Z,16.24
2022-11-15T13:38:42.380Z,16.14
2022-11-15T13:41:18.806Z,16.10
2022-11-15T13:43:45.780Z,15.89
2022-11-15T13:46:17.010Z,15.74
2022-11-15T13:48:45.383Z,15.69
2022-11-15T13:51:27.065Z,15.48
2022-11-15T13:54:03.005Z,15.55
2022-11-15T13:56:32.605Z,15.52
2022-11-15T13:58:59.727Z,15.43
2022-11-15T14:01:30.560Z,15.37
2022-11-15T14:04:00.240Z,15.43
2022-11-15T14:06:29.821Z,15.42
2022-11-15T14:09:39.380Z,15.45
2022-11-15T14:12:34.358Z,15.45
2022-11-15T14:15:18.873Z,15.41
2022-11-15T14:17:50.072Z,15.37
2022-11-15T14:20:26.353Z,15.24
2022-11-15T14:22:58.496Z,15.24
2022-11-15T14:25:53.605Z,15.25
2022-11-15T14:28:25.978Z,15.20
2022-11-15T14:30:58.590Z,15.11
2022-11-15T14:33:30.906Z,15.07
2022-11-15T14:36:03.194Z,15.11
2022-11-15T14:38:30.989Z,15.04
2022-11-15T14:40:58.656Z,15.03
2022-11-15T14:43:27.904Z,14.97
2022-11-15T14:45:54.705Z,14.92
2022-11-15T14:48:21.622Z,14.93
2022-11-15T14:50:48.290Z,14.81
2022-11-15T14:53:17.634Z,14.80
2022-11-15T14:55:45.085Z,14.71
2022-11-15T14:58:11.951Z,14.70
2022-11-15T15:00:41.417Z,14.61
2022-11-15T15:03:08.501Z,14.57
2022-11-15T15:05:36.854Z,14.51
2022-11-15T15:08:03.947Z,14.53
2022-11-15T15:10:41.425Z,14.45
2022-11-15T15:13:19.019Z,14.44
2022-11-15T15:15:45.800Z,14.36
2022-11-15T15:18:12.514Z,14.20
2022-11-15T15:20:41.287Z,14.26
2022-11-15T15:23:20.115Z,14.24
2022-11-15T15:25:50.079Z,14.11
2022-11-15T15:28:17.119Z,14.10
2022-11-15T15:30:44.160Z,14.12
2022-11-15T15:33:10.823Z,14.05
2022-11-15T15:35:37.801Z,14.04
2022-11-15T15:38:05.006Z,14.03
2022-11-15T15:40:34.245Z,13.91
2022-11-15T15:43:01.398Z,13.94
2022-11-15T15:45:29.280Z,13.79
2022-11-15T15:47:56.435Z,13.70
2022-11-15T15:50:33.227Z,13.62
2022-11-15T15:53:01.767Z,13.60
2022-11-15T15:55:28.896Z,13.54
2022-11-15T15:57:56.267Z,13.38
2022-11-15T16:00:25.940Z,13.41
2022-11-15T16:02:53.381Z,13.29
2022-11-15T16:05:20.080Z,13.27
2022-11-15T16:07:48.531Z,13.40
2022-11-15T16:10:18.025Z,13.38
2022-11-15T16:12:45.344Z,13.30
2022-11-15T16:15:12.136Z,13.36
2022-11-15T16:17:43.408Z,13.28
2022-11-15T16:20:22.357Z,13.26
2022-11-15T16:22:48.840Z,13.13
2022-11-15T16:25:15.497Z,13.11
2022-11-15T16:27:46.044Z,13.12
2022-11-15T16:30:17.835Z,13.06
2022-11-15T16:32:44.649Z,12.99
2022-11-15T16:35:16.404Z,12.90
2022-11-15T16:37:45.231Z,12.83
2022-11-15T16:40:23.662Z,12.81
2022-11-15T16:42:50.229Z,12.78
2022-11-15T16:45:16.923Z,12.77
2022-11-15T16:47:43.606Z,12.89
2022-11-15T16:50:43.219Z,12.94
2022-11-15T16:53:09.781Z,12.94
2022-11-15T16:55:36.470Z,13.07
2022-11-15T16:58:03.275Z,13.04
2022-11-15T17:00:29.934Z,12.94
2022-11-15T17:02:56.810Z,12.83
2022-11-15T17:05:24.676Z,12.85
2022-11-15T17:07:55.250Z,12.86
2022-11-15T17:10:24.014Z,12.76
2022-11-15T17:12:51.285Z,12.77
2022-11-15T17:15:18.604Z,12.69
2022-11-15T17:17:50.910Z,12.59
2022-11-15T17:20:19.463Z,12.54
2022-11-15T17:22:47.307Z,12.36
2022-11-15T17:25:14.170Z,12.35
2022-11-15T17:27:40.976Z,12.36
2022-11-15T17:30:08.108Z,12.30
2022-11-15T17:32:37.991Z,12.35
2022-11-15T17:35:12.060Z,12.27
2022-11-15T17:37:41.736Z,12.18
2022-11-15T17:40:08.895Z,12.21
2022-11-15T17:42:35.593Z,12.19
2022-11-15T17:45:08.165Z,12.12
2022-11-15T17:47:36.068Z,12.09
2022-11-15T17:50:02.637Z,12.21
2022-11-15T17:52:29.336Z,12.30
2022-11-15T17:54:55.930Z,12.47
2022-11-15T17:57:22.786Z,12.55
2022-11-15T17:59:49.348Z,12.53
2022-11-15T18:02:16.014Z,12.56
2022-11-15T18:04:42.745Z,12.60
2022-11-15T18:07:11.883Z,12.57
2022-11-15T18:09:42.372Z,12.67
2022-11-15T18:12:09.465Z,12.69
2022-11-15T18:14:36.341Z,12.72
2022-11-15T18:17:03.073Z,12.71
2022-11-15T18:19:29.778Z,12.69
2022-11-15T18:21:56.564Z,12.68
2022-11-15T18:24:31.748Z,12.69
2022-11-15T18:27:00.059Z,12.72
2022-11-15T18:29:27.170Z,12.74
2022-11-15T18:31:57.695Z,12.69
2022-11-15T18:34:28.904Z,12.68
2022-11-15T18:36:55.571Z,12.68
2022-11-15T18:39:22.169Z,12.65
2022-11-15T18:41:49.110Z,12.66
2022-11-15T18:44:16.669Z,12.59
2022-11-15T18:46:45.233Z,12.54
2022-11-15T18:49:14.488Z,12.59
2022-11-15T18:51:42.275Z,12.54
2022-11-15T18:54:11.170Z,12.59
2022-11-15T18:56:38.243Z,12.61
2022-11-15T18:59:05.471Z,12.72
2022-11-15T19:01:37.848Z,12.69
2022-11-15T19:04:10.694Z,12.67
2022-11-15T19:06:40.456Z,12.68
2022-11-15T19:09:08.548Z,12.76
2022-11-15T19:11:37.365Z,12.74
2022-11-15T19:14:06.501Z,12.69
2022-11-15T19:16:36.274Z,12.56
2022-11-15T19:19:05.533Z,12.55
2022-11-15T19:21:32.783Z,12.56
2022-11-15T19:24:00.325Z,12.56
2022-11-15T19:26:28.844Z,12.48
2022-11-15T19:29:00.284Z,12.53
2022-11-15T19:31:29.386Z,12.51
2022-11-15T19:33:58.051Z,12.48
2022-11-15T19:36:27.866Z,12.44
2022-11-15T19:38:57.603Z,12.49
2022-11-15T19:41:25.359Z,12.49
2022-11-15T19:43:53.104Z,12.40
2022-11-15T19:46:22.001Z,12.32
2022-11-15T19:48:49.368Z,12.34
2022-11-15T19:51:22.051Z,12.30
2022-11-15T19:53:50.326Z,12.25
2022-11-15T19:56:18.688Z,12.16
2022-11-15T19:58:46.459Z,12.17
2022-11-15T20:01:31.116Z,12.14
2022-11-15T20:03:59.729Z,12.12
2022-11-15T20:06:35.127Z,12.14
2022-11-15T20:09:01.711Z,12.04
2022-11-15T20:11:28.510Z,12.11
2022-11-15T20:13:57.870Z,12.20
2022-11-15T20:16:25.568Z,12.16
2022-11-15T20:18:53.386Z,12.15
2022-11-15T20:21:20.910Z,12.20
2022-11-15T20:23:56.653Z,12.15
2022-11-15T20:26:23.344Z,12.20
2022-11-15T20:28:50.340Z,12.20
2022-11-15T20:31:19.443Z,12.18
2022-11-15T20:33:46.074Z,12.13
2022-11-15T20:36:15.664Z,12.09
2022-11-15T20:38:43.475Z,12.10
2022-11-15T20:41:11.014Z,12.02
2022-11-15T20:43:37.826Z,12.03
2022-11-15T20:46:04.756Z,11.97
2022-11-15T20:48:32.288Z,11.88
2022-11-15T20:51:12.599Z,11.92
2022-11-15T20:53:40.272Z,11.86
2022-11-15T20:56:10.894Z,11.77
2022-11-15T20:58:38.308Z,11.79
2022-11-15T21:01:07.013Z,11.79
2022-11-15T21:03:35.102Z,11.82
2022-11-15T21:06:02.390Z,11.77
2022-11-15T21:08:49.462Z,11.69
2022-11-15T21:11:34.858Z,11.67
2022-11-15T21:14:06.286Z,11.71
2022-11-15T21:16:35.590Z,11.74
2022-11-15T21:19:02.204Z,11.67
2022-11-15T21:21:28.915Z,11.61
2022-11-15T21:23:55.493Z,11.61
2022-11-15T21:26:22.240Z,11.51
2022-11-15T21:28:48.848Z,11.51
2022-11-15T21:31:15.557Z,11.62
2022-11-15T21:33:42.255Z,11.62
2022-11-15T21:36:09.375Z,11.60
2022-11-15T21:38:36.247Z,11.63
2022-11-15T21:41:04.205Z,11.65
2022-11-15T21:43:30.886Z,11.65
2022-11-15T21:46:00.383Z,11.61
2022-11-15T21:48:28.385Z,11.56
2022-11-15T21:50:58.744Z,11.59
2022-11-15T21:53:26.322Z,11.55
2022-11-15T21:55:53.112Z,11.56
2022-11-15T21:58:20.794Z,11.54
2022-11-15T22:01:06.438Z,11.56
2022-11-15T22:03:33.440Z,11.58
2022-11-15T22:06:00.734Z,11.52
2022-11-15T22:08:28.170Z,11.54
2022-11-15T22:10:56.907Z,11.46
2022-11-15T22:13:24.653Z,11.44
2022-11-15T22:15:53.579Z,11.49
2022-11-15T22:18:26.259Z,11.44
2022-11-15T22:21:06.477Z,11.44
2022-11-15T22:23:34.590Z,11.54
2022-11-15T22:26:01.284Z,11.56
2022-11-15T22:28:28.027Z,11.51
2022-11-15T22:30:55.401Z,11.51
2022-11-15T22:33:24.803Z,11.45
2022-11-15T22:35:52.275Z,11.42
2022-11-15T22:38:19.295Z,11.39
2022-11-15T22:40:46.767Z,11.39
2022-11-15T22:43:15.143Z,11.38
2022-11-15T22:45:52.110Z,11.47
2022-11-15T22:48:27.261Z,11.44
2022-11-15T22:50:54.497Z,11.47
2022-11-15T22:53:21.868Z,11.49
2022-11-15T22:55:57.156Z,11.50
2022-11-15T22:58:25.998Z,11.39
2022-11-15T23:00:57.612Z,11.41
2022-11-15T23:03:25.469Z,11.38
2022-11-15T23:05:52.779Z,11.37
2022-11-15T23:08:20.234Z,11.46
2022-11-15T23:11:05.178Z,11.38
2022-11-15T23:13:33.693Z,11.46
2022-11-15T23:16:22.616Z,11.49
2022-11-15T23:18:51.507Z,11.54
2022-11-15T23:21:46.813Z,11.50
2022-11-15T23:24:14.457Z,11.54
2022-11-15T23:26:42.058Z,11.44
2022-11-15T23:29:10.534Z,11.50
2022-11-15T23:32:01.666Z,11.51
2022-11-15T23:34:30.488Z,11.51
2022-11-15T23:36:57.405Z,11.55
2022-11-15T23:39:24.064Z,11.54
2022-11-15T23:41:50.729Z,11.53
2022-11-15T23:44:17.407Z,11.47
2022-11-15T23:46:44.344Z,11.45
2022-11-15T23:49:11.189Z,11.53
2022-11-15T23:51:37.800Z,11.56
2022-11-15T23:54:04.562Z,11.55
2022-11-15T23:56:31.296Z,11.57
2022-11-15T23:58:58.024Z,11.49
